Time;durP1;ratioP1;P1;durP2;ratioP2;P2;SDS_P1;SDS_P2;PMS_P1;PMS_P2;Temp;Humidity;BMP_temperature;BMP_pressure;BME280_temperature;BME280_humidity;BME280_pressure;Samples;Min_cycle;Max_cycle;Signal;HPM_P1;HPM_P2
2022/01/06 14:03:10;;;;;;;1.60;1.40;;;15.60;60.00;;;15.48;57.93;99392.97;5090808;27;20632;-34
2022/01/06 14:05:36;;;;;;;2.38;1.20;;;15.60;61.90;;;15.63;59.49;99398.56;5052510;28;20320;-35
2022/01/06 14:08:02;;;;;;;2.20;1.00;;;15.70;63.00;;;15.84;59.82;99406.94;5069852;28;20199;-35
2022/01/06 14:10:28;;;;;;;2.00;1.30;;;15.80;64.20;;;16.02;59.97;99399.19;5069963;28;20182;-35
2022/01/06 14:12:54;;;;;;;0.90;0.90;;;16.00;64.90;;;16.19;59.70;99395.81;5052261;28;20178;-35
2022/01/06 14:15:20;;;;;;;1.65;1.20;;;16.20;65.10;;;16.25;59.78;99369.19;5035922;28;20286;-38
2022/01/06 14:17:46;;;;;;;1.33;1.10;;;16.50;65.10;;;16.63;59.55;99409.81;5035977;28;20185;-38
2022/01/06 14:20:12;;;;;;;2.22;1.20;;;16.70;64.80;;;16.51;59.43;99366.69;5052000;28;20183;-39
2022/01/06 14:22:38;;;;;;;1.50;1.20;;;16.90;64.60;;;16.96;59.56;99413.53;5035400;28;20214;-39
2022/01/06 14:25:04;;;;;;;0.90;0.90;;;17.10;64.40;;;17.06;59.25;99414.25;5051723;28;20183;-40
2022/01/06 14:27:30;;;;;;;1.38;1.23;;;17.30;64.30;;;17.22;59.55;99430.00;5068644;28;20253;-38
2022/01/06 14:29:56;;;;;;;2.00;1.20;;;17.50;64.10;;;17.31;59.50;99429.09;5069459;28;20524;-39
2022/01/06 14:32:22;;;;;;;1.13;0.95;;;17.70;64.00;;;17.39;59.24;99429.16;5069541;28;20191;-39
2022/01/06 14:34:48;;;;;;;1.67;1.30;;;17.80;63.80;;;17.45;59.59;99438.16;5070024;28;20195;-39
2022/01/06 14:37:14;;;;;;;2.15;1.00;;;18.00;63.80;;;17.46;59.70;99429.34;5051493;28;20209;-39
2022/01/06 14:39:40;;;;;;;1.17;1.08;;;18.10;63.70;;;17.54;59.58;99447.69;5069442;28;20183;-39
2022/01/06 14:42:06;;;;;;;1.20;1.10;;;18.20;63.60;;;17.62;59.73;99439.13;5018317;28;20223;-39
2022/01/06 14:44:32;;;;;;;1.45;1.20;;;18.30;63.60;;;17.68;59.66;99444.53;5035556;28;20515;-38
2022/01/06 14:46:59;;;;;;;1.20;1.10;;;18.40;63.60;;;17.73;60.05;99446.66;5034699;28;20191;-38
2022/01/06 14:49:25;;;;;;;1.10;1.00;;;18.50;63.70;;;17.79;60.18;99446.03;5051667;28;20179;-39
2022/01/06 14:51:55;;;;;;;0.90;0.90;;;18.60;63.70;;;17.82;60.24;99451.78;5052020;28;20505;-38
2022/01/06 14:54:24;;;;;;;1.58;1.35;;;18.60;63.60;;;17.75;59.99;99437.72;5069092;28;20222;-38
2022/01/06 14:56:51;;;;;;;1.20;1.10;;;18.70;63.60;;;17.85;59.97;99438.44;5069020;28;20271;-39
2022/01/06 14:59:17;;;;;;;2.00;1.30;;;18.80;63.60;;;17.95;60.08;99461.00;5034722;28;20632;-38
2022/01/06 15:01:44;;;;;;;1.25;1.10;;;18.80;63.50;;;18.00;60.55;99458.72;5060467;28;20234;-39
2022/01/06 15:04:10;;;;;;;2.15;1.10;;;18.90;63.60;;;18.01;60.02;99457.75;5031311;28;20625;-39
2022/01/06 15:06:37;;;;;;;0.82;0.82;;;18.90;63.50;;;18.01;60.13;99457.75;5031482;28;20601;-39
2022/01/06 15:09:03;;;;;;;1.20;1.10;;;18.90;63.50;;;18.03;60.24;99459.25;5014701;28;20457;-39
2022/01/06 15:11:29;;;;;;;1.15;1.00;;;18.90;63.50;;;18.02;60.55;99462.81;5031548;28;20764;-39
2022/01/06 15:13:55;;;;;;;1.20;1.10;;;19.00;63.60;;;18.01;60.49;99461.19;5021538;28;20514;-39
2022/01/06 15:16:21;;;;;;;1.30;1.05;;;19.00;63.60;;;17.98;60.49;99458.06;5001202;28;20208;-38
2022/01/06 15:18:47;;;;;;;1.58;1.02;;;19.00;63.70;;;18.02;60.79;99467.22;5001835;28;20302;-39
2022/01/06 15:21:14;;;;;;;1.20;1.10;;;19.00;63.70;;;18.06;60.60;99471.16;5017532;28;20208;-39
2022/01/06 15:23:40;;;;;;;1.80;1.00;;;19.00;63.70;;;18.11;60.94;99474.94;5018176;28;20242;-39
2022/01/06 15:26:06;;;;;;;1.83;1.10;;;19.00;63.70;;;18.06;60.91;99461.53;5001415;28;20207;-39
2022/01/06 15:28:32;;;;;;;1.05;0.93;;;19.10;63.80;;;18.07;60.82;99473.59;5001628;28;20227;-40
2022/01/06 15:30:58;;;;;;;0.93;0.93;;;19.10;63.80;;;18.12;60.74;99467.91;5035195;28;20207;-42
2022/01/06 15:33:24;;;;;;;1.17;1.08;;;19.10;63.70;;;18.01;60.83;99455.97;5030567;28;20191;-39
2022/01/06 15:35:53;;;;;;;1.10;1.00;;;19.10;63.80;;;18.12;60.81;99463.50;5055359;28;20271;-40
2022/01/06 15:38:19;;;;;;;1.10;0.98;;;19.10;63.80;;;18.12;60.75;99471.34;5037287;28;20180;-38
2022/01/06 15:40:46;;;;;;;1.13;1.02;;;19.10;63.80;;;18.15;60.80;99470.22;5021051;28;20205;-38
2022/01/06 15:43:14;;;;;;;1.10;1.02;;;19.10;63.80;;;18.15;60.82;99462.38;5054423;28;20200;-38
2022/01/06 15:45:41;;;;;;;2.10;0.98;;;19.10;63.80;;;18.01;60.57;99444.69;5055344;28;20187;-38
2022/01/06 15:48:07;;;;;;;1.05;0.98;;;19.10;63.80;;;18.19;60.72;99474.97;5020698;28;20194;-40
2022/01/06 15:50:35;;;;;;;0.95;0.95;;;19.10;63.80;;;18.21;60.50;99473.00;5020780;28;20187;-39
2022/01/06 15:53:01;;;;;;;1.88;1.10;;;19.10;63.80;;;18.20;60.58;99465.34;5037074;28;20209;-39
2022/01/06 15:55:27;;;;;;;1.25;1.15;;;19.20;63.90;;;18.15;60.73;99484.09;5037421;28;20629;-39
2022/01/06 15:57:54;;;;;;;1.20;1.10;;;19.10;63.80;;;18.15;60.72;99478.88;5021093;28;20183;-38
2022/01/06 16:05:41;;;;;;;1.48;1.10;;;19.10;64.10;;;18.15;60.95;99476.25;5073954;28;20209;-38
2022/01/06 16:08:13;;;;;;;1.23;1.10;;;19.10;64.20;;;18.12;60.82;99480.97;5073605;28;20179;-39
2022/01/06 16:10:38;;;;;;;1.30;1.20;;;19.10;64.40;;;18.06;61.23;99489.44;5073706;28;20180;-39
2022/01/06 16:13:04;;;;;;;1.20;1.10;;;19.00;64.40;;;18.02;61.43;99486.31;5074208;28;20273;-40
2022/01/06 16:15:30;;;;;;;2.50;1.17;;;19.00;64.50;;;18.00;61.36;99480.44;5074359;28;20266;-40
2022/01/06 16:17:56;;;;;;;1.40;1.10;;;19.00;64.50;;;18.05;61.47;99493.00;5039996;28;20183;-39
2022/01/06 16:20:22;;;;;;;1.30;1.20;;;19.10;64.60;;;18.04;61.53;99493.97;5074394;28;20185;-39
2022/01/06 16:22:48;;;;;;;1.05;1.02;;;19.00;64.40;;;18.04;61.47;99501.81;5073157;28;20198;-39
2022/01/06 16:25:14;;;;;;;1.20;1.10;;;19.00;64.50;;;17.98;61.58;99503.25;5072937;28;20197;-39
2022/01/06 16:27:40;;;;;;;1.30;1.20;;;19.00;64.50;;;18.04;61.94;99515.69;5056471;28;20175;-39
2022/01/06 16:30:44;;;;;;;1.20;1.10;;;19.00;64.60;;;18.06;61.46;99511.13;5039733;28;20183;-39
2022/01/06 16:33:10;;;;;;;0.90;0.90;;;18.90;64.80;;;18.00;61.87;99510.94;5063545;28;20223;-41
2022/01/06 16:35:36;;;;;;;2.85;1.35;;;18.90;64.90;;;17.98;62.12;99511.09;5054402;28;20180;-40
2022/01/06 16:38:03;;;;;;;2.15;1.20;;;18.80;65.00;;;17.94;61.88;99503.75;5052518;28;20218;-42
2022/01/06 16:40:28;;;;;;;1.20;1.10;;;18.90;65.30;;;17.97;61.80;99511.25;5054013;28;20188;-41
2022/01/06 16:42:54;;;;;;;1.90;1.00;;;18.80;65.30;;;18.02;61.33;99514.22;5052972;28;20620;-39
2022/01/06 16:45:20;;;;;;;2.08;1.10;;;18.80;65.20;;;17.99;61.43;99514.53;5035982;28;20531;-40
2022/01/06 16:47:46;;;;;;;0.95;0.88;;;18.80;65.10;;;17.94;61.57;99501.13;5019601;28;20272;-39
2022/01/06 16:50:12;;;;;;;1.70;1.23;;;18.80;65.10;;;17.99;61.70;99514.53;5055120;28;20188;-39
2022/01/06 16:52:38;;;;;;;1.35;1.10;;;18.80;65.20;;;17.90;62.03;99508.44;5073627;28;20186;-39
2022/01/06 16:55:05;;;;;;;1.10;1.10;;;18.80;65.30;;;17.98;62.13;99520.72;5055539;28;20214;-40
2022/01/06 16:57:32;;;;;;;1.20;1.10;;;18.80;65.40;;;17.93;62.04;99520.38;5072762;28;20274;-40
2022/01/06 16:59:59;;;;;;;1.40;1.30;;;18.80;65.50;;;17.88;62.30;99521.63;5056036;28;20179;-39
2022/01/06 17:02:25;;;;;;;1.13;1.02;;;18.70;65.40;;;17.80;62.22;99515.53;5053906;28;20227;-39
2022/01/06 17:04:52;;;;;;;1.10;1.00;;;18.70;65.50;;;17.81;62.57;99518.00;5052306;28;20191;-39
2022/01/06 17:07:18;;;;;;;1.95;1.25;;;18.70;65.80;;;17.87;62.65;99533.03;5035486;28;20582;-39
2022/01/06 17:09:44;;;;;;;1.20;1.10;;;18.70;65.90;;;17.91;62.03;99532.75;5051194;28;20415;-39
2022/01/06 17:12:11;;;;;;;0.80;0.80;;;18.70;66.10;;;17.63;61.93;99509.41;5052296;28;20218;-39
2022/01/06 17:14:37;;;;;;;1.88;1.13;;;18.60;65.60;;;17.80;61.61;99532.03;5035964;28;20272;-39
2022/01/06 17:17:03;;;;;;;1.20;1.10;;;18.60;65.20;;;17.62;60.95;99513.00;5053344;28;20195;-39
2022/01/06 17:19:30;;;;;;;1.50;1.20;;;18.60;64.90;;;17.67;60.65;99534.22;5035765;28;20514;-39
2022/01/06 17:21:56;;;;;;;1.38;1.23;;;18.50;64.50;;;17.66;60.96;99529.97;5052077;28;20204;-40
2022/01/06 17:24:23;;;;;;;1.60;1.15;;;18.50;64.30;;;17.67;61.18;99531.63;5035065;28;20226;-39
2022/01/06 17:26:49;;;;;;;2.75;1.30;;;18.50;64.50;;;17.63;61.26;99539.88;5068866;28;20195;-39
2022/01/06 17:29:16;;;;;;;1.52;1.30;;;18.40;64.50;;;17.59;61.15;99536.75;5018563;28;20187;-39
2022/01/06 17:31:42;;;;;;;1.20;1.10;;;18.40;64.50;;;17.46;60.74;99511.03;5052024;28;20203;-39
2022/01/06 17:34:08;;;;;;;1.30;1.20;;;18.30;64.60;;;17.55;61.01;99532.78;5051172;28;20274;-39
2022/01/06 17:36:34;;;;;;;1.40;1.30;;;18.30;64.70;;;17.39;61.28;99517.84;5018402;28;20195;-40
2022/01/06 17:39:00;;;;;;;1.40;1.20;;;18.30;64.80;;;17.45;61.39;99530.28;5051704;28;20183;-39
2022/01/06 17:41:26;;;;;;;1.48;1.10;;;18.30;65.00;;;17.57;61.67;99543.06;5051460;28;20569;-39
2022/01/06 17:43:52;;;;;;;2.25;1.27;;;18.30;65.10;;;17.57;61.87;99553.50;5035425;28;20190;-38
2022/01/06 17:46:18;;;;;;;1.20;1.10;;;18.30;65.20;;;17.45;61.78;99537.31;5052778;28;20648;-39
2022/01/06 17:48:44;;;;;;;1.08;1.00;;;18.30;65.20;;;17.57;61.77;99556.94;5018612;28;20198;-39
2022/01/06 17:51:10;;;;;;;1.40;1.10;;;18.30;65.30;;;17.59;61.78;99560.22;5034874;28;20262;-40
2022/01/06 17:53:36;;;;;;;1.55;1.20;;;18.30;65.30;;;17.57;62.08;99562.16;5051626;28;20183;-36
2022/01/06 17:56:02;;;;;;;1.20;1.02;;;18.30;65.30;;;17.58;62.19;99553.38;5053087;28;20183;-39
2022/01/06 17:58:28;;;;;;;1.88;1.30;;;18.40;65.50;;;17.62;62.12;99556.53;5034907;28;20187;-39
2022/01/06 18:00:54;;;;;;;1.17;1.08;;;18.30;65.40;;;17.58;62.07;99536.91;5016770;28;20521;-40
2022/01/06 18:03:20;;;;;;;1.25;1.15;;;18.40;65.50;;;17.67;62.12;99542.06;5019757;28;20261;-38
2022/01/06 18:06:00;;;;;;;1.88;1.35;;;18.40;65.50;;;17.74;61.76;99563.97;5034980;28;20194;-40
2022/01/06 18:13:36;;;;;;;1.30;1.20;;;18.50;65.30;;;17.80;61.69;99552.09;5037699;28;20218;-39
2022/01/06 18:16:04;;;;;;;1.27;1.17;;;18.50;65.30;;;17.81;61.71;99548.50;5052676;28;20266;-38
2022/01/06 18:18:30;;;;;;;1.20;1.10;;;18.50;65.30;;;17.69;61.54;99524.47;5002294;28;20187;-39
2022/01/06 18:20:56;;;;;;;1.13;1.05;;;18.60;65.50;;;17.92;61.36;99555.28;5035249;28;20236;-38
2022/01/06 18:23:22;;;;;;;1.50;1.20;;;18.50;65.30;;;17.93;61.27;99549.91;5051871;28;20285;-38
2022/01/06 18:25:48;;;;;;;1.17;1.08;;;18.60;65.30;;;17.78;61.23;99531.38;5034807;28;20188;-39
2022/01/06 18:28:14;;;;;;;1.48;1.27;;;18.60;65.20;;;17.97;61.29;99558.22;5018246;28;20230;-38
2022/01/06 18:30:41;;;;;;;1.30;1.20;;;18.60;65.10;;;17.88;60.95;99539.91;5052428;28;20184;-39
2022/01/06 18:33:07;;;;;;;1.60;1.08;;;18.70;65.10;;;17.99;61.04;99551.06;5050245;28;20188;-39
2022/01/06 18:35:33;;;;;;;1.05;0.95;;;18.70;65.00;;;18.00;61.23;99550.94;5014933;28;20184;-37
2022/01/06 18:37:59;;;;;;;1.00;0.90;;;18.70;65.10;;;17.99;61.25;99549.28;5033097;28;20188;-37
2022/01/06 18:40:25;;;;;;;1.83;1.20;;;18.70;65.10;;;17.99;61.04;99544.06;5014903;28;20242;-38
2022/01/06 18:42:54;;;;;;;1.40;1.30;;;18.70;64.90;;;18.02;61.25;99556.00;5015006;28;20212;-38
2022/01/06 18:45:21;;;;;;;1.20;1.10;;;18.70;65.00;;;18.01;60.94;99533.47;4999063;28;20564;-39
2022/01/06 18:47:47;;;;;;;1.20;1.10;;;18.80;65.00;;;18.03;60.95;99552.41;5015342;28;20634;-38
2022/01/06 18:50:13;;;;;;;1.20;1.10;;;18.70;64.80;;;18.04;60.77;99541.78;5018668;28;20219;-38
2022/01/06 18:52:39;;;;;;;1.30;1.20;;;18.80;64.90;;;18.03;60.66;99534.97;5002371;28;20275;-38
2022/01/06 18:55:05;;;;;;;1.20;1.10;;;18.80;64.80;;;18.12;60.63;99548.84;5018625;28;20571;-38
2022/01/06 18:57:31;;;;;;;1.67;1.15;;;18.80;64.70;;;18.12;60.44;99548.84;5018235;28;20271;-39
2022/01/06 19:00:00;;;;;;;1.38;1.27;;;18.80;65.30;;;18.12;60.09;99541.03;5018198;28;20192;-39
2022/01/06 19:02:27;;;;;;;1.10;1.10;;;18.80;64.30;;;18.02;60.60;99548.16;5026353;28;20692;-38
2022/01/06 19:04:53;;;;;;;1.75;1.25;;;18.70;64.40;;;17.81;60.87;99525.84;5036580;28;20252;-38
2022/01/06 19:07:19;;;;;;;1.48;1.38;;;18.70;64.60;;;17.95;61.22;99545.38;5075483;28;20198;-39
2022/01/06 19:09:45;;;;;;;1.33;1.20;;;18.70;64.80;;;17.97;61.29;99551.22;5076132;28;20179;-38
2022/01/06 19:12:11;;;;;;;1.48;1.10;;;18.70;64.90;;;17.97;61.06;99558.22;5057691;28;20183;-42
2022/01/06 19:14:38;;;;;;;1.20;1.10;;;18.70;64.90;;;17.92;61.20;99556.09;5057777;28;20635;-39
2022/01/06 19:17:04;;;;;;;1.48;1.38;;;18.70;65.00;;;17.81;60.84;99557.16;5057992;28;20333;-39
2022/01/06 19:19:31;;;;;;;1.52;1.10;;;18.60;64.90;;;17.55;61.28;99532.78;5074435;28;20175;-39
2022/01/06 19:21:58;;;;;;;1.33;1.20;;;18.60;64.90;;;17.64;61.05;99551.97;5074397;28;20289;-39
2022/01/06 19:24:24;;;;;;;1.73;1.20;;;18.50;64.90;;;17.60;60.94;99555.84;5040723;28;20179;-39
2022/01/06 19:26:50;;;;;;;1.30;1.20;;;18.40;64.60;;;17.57;60.92;99556.13;5057756;28;20186;-39
2022/01/06 19:29:17;;;;;;;1.98;1.00;;;18.40;64.50;;;17.46;61.26;99546.75;5074980;28;20179;-39
2022/01/06 19:31:44;;;;;;;1.40;1.30;;;18.30;65.30;;;17.48;61.27;99557.84;5073962;28;20523;-38
2022/01/06 19:34:10;;;;;;;1.30;1.20;;;18.30;64.70;;;17.41;61.81;99549.81;5074007;28;20276;-38
2022/01/06 19:36:36;;;;;;;1.60;1.40;;;18.30;64.90;;;17.32;61.94;99553.31;5073836;28;20179;-38
2022/01/06 19:39:03;;;;;;;1.15;1.05;;;18.20;65.20;;;17.33;62.06;99554.13;5075234;28;20289;-37
2022/01/06 19:41:29;;;;;;;1.25;1.13;;;18.10;65.30;;;17.27;62.27;99554.75;5075093;28;20259;-38
2022/01/06 19:43:55;;;;;;;1.30;1.20;;;18.10;65.50;;;17.25;62.46;99548.84;5073632;28;20542;-38
2022/01/06 19:46:21;;;;;;;1.15;1.08;;;18.10;65.70;;;17.13;62.61;99537.00;5074836;28;20221;-38
2022/01/06 19:48:48;;;;;;;1.40;1.30;;;18.00;65.70;;;17.00;62.71;99522.53;5075146;28;20190;-38
2022/01/06 19:51:14;;;;;;;1.30;1.20;;;18.00;65.90;;;17.04;62.78;99536.94;5056893;28;20186;-39
2022/01/06 19:53:41;;;;;;;1.30;1.20;;;18.00;66.20;;;17.10;62.87;99557.19;5057127;28;20544;-39
2022/01/06 19:56:07;;;;;;;2.38;1.30;;;17.90;66.00;;;17.08;63.08;99555.69;5073651;28;20232;-38
2022/01/06 19:58:37;;;;;;;2.17;1.60;;;17.90;66.30;;;16.89;63.49;99525.34;5073102;28;20231;-38
2022/01/06 20:01:10;;;;;;;2.75;1.60;;;17.80;66.30;;;17.05;64.38;99559.41;5054589;28;21490;-38
2022/01/06 20:03:39;;;;;;;3.10;1.40;;;17.80;66.90;;;17.00;64.63;99555.59;5035351;28;20191;-39
2022/01/06 20:06:05;;;;;;;1.50;1.40;;;17.70;67.50;;;16.99;65.00;99560.00;5000936;28;20188;-39
2022/01/06 20:08:33;;;;;;;1.80;1.38;;;17.70;67.90;;;16.98;65.06;99563.56;5034474;28;20184;-38
2022/01/06 20:11:00;;;;;;;2.63;1.88;;;17.60;68.10;;;16.93;65.23;99558.00;5034748;28;20647;-39
2022/01/06 20:13:27;;;;;;;1.80;1.70;;;17.60;68.30;;;17.01;64.93;99571.09;5000616;28;20536;-39
2022/01/06 20:15:53;;;;;;;1.70;1.60;;;17.50;68.40;;;16.78;65.23;99533.41;5017317;28;20275;-38
2022/01/06 20:18:20;;;;;;;1.92;1.80;;;17.50;68.40;;;16.92;65.28;99555.53;5016829;28;20191;-39
2022/01/06 20:20:47;;;;;;;1.85;1.65;;;17.50;68.60;;;16.92;65.10;99555.53;5017275;28;20517;-39
2022/01/06 20:23:13;;;;;;;1.60;1.50;;;17.50;68.60;;;16.93;65.26;99565.00;5016651;28;20203;-39
2022/01/06 20:25:39;;;;;;;1.90;1.80;;;17.50;68.70;;;16.93;65.16;99558.00;5016620;28;20248;-39
2022/01/06 20:28:08;;;;;;;4.10;1.55;;;17.50;69.10;;;16.91;65.03;99559.91;5034478;28;20184;-38
2022/01/06 20:30:34;;;;;;;3.05;1.77;;;17.50;68.60;;;16.80;65.14;99544.47;5033810;28;20188;-38
2022/01/06 20:33:00;;;;;;;2.55;1.73;;;17.50;68.50;;;16.90;65.10;99555.66;5000429;28;20180;-39
2022/01/06 20:35:27;;;;;;;1.98;1.88;;;17.40;68.40;;;16.85;64.63;99560.50;5030917;28;20195;-39
2022/01/06 20:37:54;;;;;;;2.28;1.80;;;17.40;68.20;;;16.79;64.65;99547.25;5036183;28;20191;-39
2022/01/06 20:40:21;;;;;;;2.83;1.80;;;17.40;68.10;;;16.82;64.18;99552.16;5019991;28;20250;-39
2022/01/06 20:42:47;;;;;;;2.30;1.90;;;17.40;68.00;;;16.83;64.51;99556.41;5053801;28;20556;-38
2022/01/06 20:45:13;;;;;;;2.65;1.70;;;17.40;68.00;;;16.82;64.62;99549.53;5054140;28;20188;-39
2022/01/06 20:52:55;;;;;;;2.03;1.83;;;17.30;68.30;;;16.83;65.17;99561.63;5053729;28;20191;-38
2022/01/06 20:55:21;;;;;;;1.60;1.50;;;17.30;68.50;;;16.81;65.28;99560.94;5019599;28;20200;-39
2022/01/06 20:57:48;;;;;;;2.90;1.55;;;17.30;68.60;;;16.81;65.07;99556.53;5019793;28;20184;-38
2022/01/06 21:00:15;;;;;;;1.88;1.77;;;17.30;68.70;;;16.80;65.13;99557.50;5036027;28;20549;-38
2022/01/06 21:02:40;;;;;;;2.60;1.73;;;17.30;68.70;;;16.78;65.40;99564.66;5064057;28;20690;-39
2022/01/06 21:05:07;;;;;;;1.85;1.65;;;17.30;68.80;;;16.79;65.55;99561.09;5054982;28;20204;-39
2022/01/06 21:07:33;;;;;;;2.40;1.95;;;17.30;68.80;;;16.66;65.29;99535.38;5073252;28;20317;-38
2022/01/06 21:09:58;;;;;;;2.13;1.92;;;17.30;68.90;;;16.79;65.08;99560.28;5072298;28;20281;-38
2022/01/06 21:12:24;;;;;;;2.55;2.15;;;17.30;68.70;;;16.64;64.96;99534.69;5072677;28;20231;-39
2022/01/06 21:14:51;;;;;;;1.60;1.50;;;17.20;68.50;;;16.73;65.00;99552.06;5056026;28;20179;-39
2022/01/06 21:17:18;;;;;;;2.40;2.00;;;17.20;68.60;;;16.65;65.17;99538.13;5073137;28;20693;-38
2022/01/06 21:19:44;;;;;;;2.00;1.80;;;17.20;68.60;;;16.75;65.43;99559.75;5072073;28;20179;-38
2022/01/06 21:22:10;;;;;;;1.92;1.73;;;17.20;68.80;;;16.61;65.41;99532.41;5055531;28;20213;-38
2022/01/06 21:24:36;;;;;;;2.67;1.52;;;17.20;68.80;;;16.78;65.19;99553.44;5055247;28;20189;-38
2022/01/06 21:27:03;;;;;;;2.80;1.88;;;17.20;68.80;;;16.79;65.81;99555.88;5055519;28;20659;-39
2022/01/06 21:29:29;;;;;;;2.35;1.60;;;17.30;69.00;;;16.78;65.86;99543.81;5022258;28;20516;-39
2022/01/06 21:31:58;;;;;;;2.28;1.80;;;17.30;69.00;;;16.64;65.56;99516.47;5072159;28;20267;-39
2022/01/06 21:34:24;;;;;;;1.50;1.40;;;17.40;69.00;;;16.85;65.17;99539.66;5071595;28;20199;-39
2022/01/06 21:36:50;;;;;;;2.10;1.77;;;17.40;68.90;;;16.92;65.48;99539.88;5073199;28;20270;-39
2022/01/06 21:39:18;;;;;;;2.20;1.60;;;17.50;68.80;;;16.97;65.35;99545.47;5055557;28;20193;-38
2022/01/06 21:41:45;;;;;;;3.50;1.70;;;17.50;68.70;;;16.87;64.84;99518.66;5071888;28;20229;-39
2022/01/06 21:44:11;;;;;;;2.40;1.90;;;17.60;68.60;;;16.94;64.63;99517.94;5073030;28;20198;-35
2022/01/06 21:46:37;;;;;;;2.03;1.70;;;17.60;68.40;;;17.19;64.52;99541.63;5054523;28;20449;-39
2022/01/06 21:49:04;;;;;;;1.67;1.58;;;17.70;68.30;;;17.07;64.09;99525.38;5072782;28;20182;-39
2022/01/06 21:51:30;;;;;;;2.30;1.40;;;17.70;68.00;;;17.18;64.11;99539.97;5054781;28;20183;-40
2022/01/06 21:53:57;;;;;;;1.90;1.77;;;17.70;67.90;;;17.23;64.02;99545.56;5073263;28;20187;-39
2022/01/06 21:56:23;;;;;;;1.90;1.70;;;17.80;67.80;;;17.22;63.94;99534.31;5072814;28;20260;-37
2022/01/06 21:58:49;;;;;;;2.50;1.88;;;17.80;67.60;;;17.22;63.75;99521.28;5071801;28;20214;-38
2022/01/06 22:01:16;;;;;;;1.55;1.45;;;17.90;67.50;;;17.30;63.63;99523.13;5037575;28;20230;-37
2022/01/06 22:03:42;;;;;;;1.60;1.50;;;17.90;67.30;;;17.28;63.56;99530.31;5054359;28;20210;-39
2022/01/06 22:06:09;;;;;;;2.30;1.98;;;17.90;67.20;;;17.31;63.44;99537.81;5070955;28;20187;-38
2022/01/06 22:08:35;;;;;;;1.75;1.65;;;18.00;67.10;;;17.15;63.60;99508.97;5072341;28;20236;-38
2022/01/06 22:11:02;;;;;;;1.70;1.60;;;18.00;66.90;;;17.13;63.42;99511.72;5054820;28;20183;-38
2022/01/06 22:13:28;;;;;;;1.77;1.58;;;18.00;66.80;;;17.26;63.58;99535.66;5054669;28;20213;-37
2022/01/06 22:15:55;;;;;;;1.60;1.50;;;18.00;66.90;;;17.25;63.49;99538.41;5071396;28;20651;-39
2022/01/06 22:18:26;;;;;;;1.60;1.50;;;17.90;66.80;;;17.24;63.30;99555.84;5055115;28;20228;-44
2022/01/06 22:20:53;;;;;;;1.80;1.70;;;17.90;66.70;;;17.25;63.46;99547.06;5039281;28;20183;-37
2022/01/06 22:23:19;;;;;;;2.67;1.58;;;18.00;66.80;;;17.19;63.31;99545.06;5072563;28;20259;-38
2022/01/06 22:25:46;;;;;;;1.63;1.52;;;17.90;66.70;;;17.23;63.60;99545.56;5076789;28;20187;-38
2022/01/06 22:28:13;;;;;;;2.75;1.90;;;17.90;66.70;;;17.15;63.59;99537.66;5058737;28;20179;-38
2022/01/06 22:30:41;;;;;;;2.47;1.70;;;17.90;66.70;;;17.12;63.66;99528.38;5076259;28;20635;-39
2022/01/06 22:33:08;;;;;;;3.05;1.60;;;18.00;66.70;;;17.07;63.16;99513.16;5076740;28;20179;-38
2022/01/06 22:35:34;;;;;;;1.92;1.60;;;18.00;66.70;;;17.04;63.37;99518.69;5065078;28;20637;-39
2022/01/06 22:38:00;;;;;;;1.73;1.63;;;18.00;66.60;;;17.21;63.80;99539.69;5039015;28;20187;-38
2022/01/06 22:40:29;;;;;;;2.55;1.98;;;18.00;66.60;;;17.21;63.31;99529.28;5056236;28;20187;-42
2022/01/06 22:42:56;;;;;;;1.88;1.50;;;17.90;66.50;;;17.09;63.27;99508.63;5038847;28;20238;-40
2022/01/06 22:45:22;;;;;;;1.73;1.63;;;18.00;66.60;;;17.23;63.25;99522.91;5055253;28;20287;-38
2022/01/06 22:47:48;;;;;;;1.60;1.50;;;18.00;66.50;;;17.24;63.32;99528.94;5055596;28;20203;-39
2022/01/06 22:50:14;;;;;;;1.60;1.50;;;17.90;66.40;;;16.88;63.12;99473.41;5055283;28;20551;-38
2022/01/06 22:52:41;;;;;;;1.52;1.42;;;18.00;66.50;;;17.23;63.05;99529.91;5038249;28;20179;-38
2022/01/06 22:55:08;;;;;;;1.83;1.60;;;18.00;66.50;;;17.23;63.35;99532.53;5054912;28;20237;-38
2022/01/06 22:57:34;;;;;;;2.00;1.80;;;17.90;66.40;;;16.99;63.22;99494.84;5055717;28;20574;-39
2022/01/06 23:00:00;;;;;;;2.00;1.70;;;17.90;66.40;;;17.27;62.89;99536.47;5038143;28;20191;-38
2022/01/06 23:02:27;;;;;;;1.75;1.60;;;18.00;66.40;;;17.27;62.83;99528.66;5054358;28;20281;-39
2022/01/06 23:04:56;;;;;;;1.35;1.25;;;18.00;66.40;;;17.28;62.73;99528.53;5058043;28;20191;-38
2022/01/06 23:07:22;;;;;;;1.90;1.58;;;18.00;66.30;;;17.34;62.44;99525.31;5075906;28;20512;-38
2022/01/06 23:09:48;;;;;;;2.15;1.70;;;18.00;66.10;;;17.32;62.21;99506.38;5075724;28;20194;-37
2022/01/06 23:12:14;;;;;;;1.65;1.52;;;18.00;66.10;;;17.19;62.52;99500.72;5075818;28;20171;-38
